Time;durP1;ratioP1;P1;durP2;ratioP2;P2;SDS_P1;SDS_P2;PMS_P1;PMS_P2;Temp;Humidity;BMP_temperature;BMP_pressure;BME280_temperature;BME280_humidity;BME280_pressure;Samples;Min_cycle;Max_cycle;Signal;HPM_P1;HPM_P2
2021/09/11 00:00:16;;;;;;;13.95;8.63;;;16.90;99.90;;;;;;5032487;28;20067;-79
2021/09/11 00:02:43;;;;;;;14.75;10.18;;;16.90;99.90;;;;;;5050756;28;20108;-80
2021/09/11 00:05:09;;;;;;;14.50;9.35;;;16.90;99.90;;;;;;5030901;28;20029;-79
2021/09/11 00:07:35;;;;;;;11.63;8.88;;;16.80;99.90;;;;;;5040008;28;20076;-79
2021/09/11 00:10:01;;;;;;;11.63;9.20;;;16.80;99.90;;;;;;5013748;28;20040;-79
2021/09/11 00:12:27;;;;;;;13.32;9.07;;;16.80;99.90;;;;;;5038268;28;20107;-79
2021/09/11 00:14:53;;;;;;;12.70;9.75;;;16.80;99.90;;;;;;5070948;28;20032;-79
2021/09/11 00:17:18;;;;;;;12.77;9.77;;;16.80;99.90;;;;;;5044658;28;20043;-79
2021/09/11 00:19:44;;;;;;;13.93;10.25;;;16.70;99.90;;;;;;5020869;28;20068;-80
2021/09/11 00:22:10;;;;;;;14.10;9.77;;;16.70;99.90;;;;;;4996761;28;20036;-79
2021/09/11 00:24:36;;;;;;;12.70;10.23;;;16.70;99.90;;;;;;5043973;28;20029;-79
2021/09/11 00:27:01;;;;;;;14.77;10.40;;;16.70;99.90;;;;;;5016304;28;20025;-79
2021/09/11 00:29:27;;;;;;;14.40;10.38;;;16.70;99.90;;;;;;5000002;28;20128;-79
2021/09/11 00:31:53;;;;;;;15.00;10.27;;;16.70;99.90;;;;;;4998904;28;20100;-80
2021/09/11 00:34:18;;;;;;;15.48;10.43;;;16.70;99.90;;;;;;5008574;28;20041;-80
2021/09/11 00:36:44;;;;;;;15.07;10.00;;;16.70;99.90;;;;;;5017598;28;20033;-79
2021/09/11 00:39:10;;;;;;;13.93;10.32;;;16.70;99.90;;;;;;5056733;28;20045;-79
2021/09/11 00:41:35;;;;;;;14.40;10.38;;;16.70;99.90;;;;;;5000435;28;20402;-79
2021/09/11 00:44:01;;;;;;;13.68;10.55;;;16.70;99.90;;;;;;5019989;28;20087;-79
2021/09/11 00:46:27;;;;;;;14.50;10.45;;;16.70;99.90;;;;;;5025881;28;20033;-79
2021/09/11 00:48:53;;;;;;;14.77;11.10;;;16.70;99.90;;;;;;5023764;28;20116;-79
2021/09/11 00:51:19;;;;;;;13.38;10.40;;;16.70;99.90;;;;;;5035948;28;20055;-79
2021/09/11 00:53:45;;;;;;;12.85;9.27;;;16.70;99.90;;;;;;5039741;28;20040;-81
2021/09/11 00:56:12;;;;;;;13.80;9.90;;;16.70;99.90;;;;;;5033967;28;20075;-78
2021/09/11 00:58:39;;;;;;;13.52;9.48;;;16.70;99.90;;;;;;5051819;28;20100;-79
2021/09/11 01:01:06;;;;;;;12.98;9.43;;;16.70;99.90;;;;;;4984445;28;20048;-79
2021/09/11 01:03:32;;;;;;;14.55;10.02;;;16.70;99.90;;;;;;5026674;28;20494;-79
2021/09/11 01:05:58;;;;;;;14.50;10.30;;;16.70;99.90;;;;;;5038584;28;20037;-79
2021/09/11 01:08:26;;;;;;;13.45;9.20;;;16.70;99.90;;;;;;5048770;28;20029;-80
2021/09/11 01:10:52;;;;;;;14.07;9.60;;;16.70;99.90;;;;;;5033765;28;20033;-79
2021/09/11 01:13:18;;;;;;;17.58;10.20;;;16.70;99.90;;;;;;5063168;28;20025;-79
2021/09/11 01:15:45;;;;;;;11.20;8.75;;;16.70;99.90;;;;;;5033011;28;20569;-79
2021/09/11 01:18:11;;;;;;;12.32;9.60;;;16.70;99.90;;;;;;5017655;28;20491;-79
2021/09/11 01:20:37;;;;;;;11.70;8.82;;;16.70;99.90;;;;;;5035243;28;20037;-79
2021/09/11 01:23:04;;;;;;;12.75;9.30;;;16.70;99.90;;;;;;5053589;28;20441;-79
2021/09/11 01:25:30;;;;;;;12.77;9.70;;;16.60;99.90;;;;;;5048518;28;20104;-79
2021/09/11 01:27:56;;;;;;;14.55;9.20;;;16.60;99.90;;;;;;5047257;28;20470;-79
2021/09/11 01:30:22;;;;;;;15.10;10.07;;;16.60;99.90;;;;;;5043865;28;20025;-80
2021/09/11 01:32:50;;;;;;;12.55;9.30;;;16.60;99.90;;;;;;5028577;28;20111;-79
2021/09/11 01:35:17;;;;;;;12.52;9.48;;;16.60;99.90;;;;;;5018976;28;20124;-79
2021/09/11 01:37:43;;;;;;;14.18;10.52;;;16.60;99.90;;;;;;5037685;28;20025;-79
2021/09/11 01:40:09;;;;;;;14.82;10.25;;;16.60;99.90;;;;;;5005767;28;20060;-79
2021/09/11 01:42:35;;;;;;;15.25;11.18;;;16.60;99.90;;;;;;5048751;28;20033;-79
2021/09/11 01:45:10;;;;;;;13.73;9.48;;;16.60;99.90;;;;;;5051900;28;20127;-79
2021/09/11 01:47:37;;;;;;;13.02;9.90;;;16.60;99.90;;;;;;5051026;28;20021;-79
2021/09/11 01:50:04;;;;;;;12.38;9.73;;;16.60;99.90;;;;;;5038867;28;20032;-79
2021/09/11 01:52:30;;;;;;;13.98;10.27;;;16.60;99.90;;;;;;5035036;28;20476;-79
2021/09/11 01:54:55;;;;;;;15.35;9.38;;;16.60;99.90;;;;;;5026930;28;20128;-79
2021/09/11 01:57:21;;;;;;;13.70;9.52;;;16.60;99.90;;;;;;5021634;28;20052;-79
2021/09/11 01:59:47;;;;;;;14.20;10.27;;;16.60;99.90;;;;;;5039733;28;20147;-81
2021/09/11 02:02:13;;;;;;;16.35;10.73;;;16.60;99.90;;;;;;5033151;28;20037;-80
2021/09/11 02:04:38;;;;;;;15.55;10.30;;;16.60;99.90;;;;;;5035144;28;20033;-79
2021/09/11 02:07:06;;;;;;;14.10;10.70;;;16.60;99.90;;;;;;5042952;28;20526;-79
2021/09/11 02:09:32;;;;;;;13.05;9.80;;;16.60;99.90;;;;;;5060321;28;20098;-78
2021/09/11 02:11:59;;;;;;;14.45;9.30;;;16.60;99.90;;;;;;5022744;28;20044;-79
2021/09/11 02:14:25;;;;;;;12.45;9.88;;;16.60;99.90;;;;;;5027056;28;20507;-79
2021/09/11 02:16:50;;;;;;;11.95;9.73;;;16.60;99.90;;;;;;5052342;28;20028;-79
2021/09/11 02:19:17;;;;;;;13.93;9.25;;;16.50;99.90;;;;;;5017952;28;20037;-80
2021/09/11 02:21:43;;;;;;;13.32;9.93;;;16.50;99.90;;;;;;5043917;28;20033;-79
2021/09/11 02:24:08;;;;;;;14.32;10.32;;;16.50;99.90;;;;;;5020238;28;20128;-80
2021/09/11 02:26:35;;;;;;;12.68;9.65;;;16.50;99.90;;;;;;5043195;28;20116;-79
2021/09/11 02:29:02;;;;;;;12.55;9.25;;;16.50;99.90;;;;;;5035132;28;20042;-79
2021/09/11 02:31:28;;;;;;;13.35;10.88;;;16.50;99.90;;;;;;5016662;28;20064;-80
2021/09/11 02:33:54;;;;;;;14.23;10.20;;;16.50;99.90;;;;;;5029895;28;20091;-79
2021/09/11 02:36:20;;;;;;;12.85;9.90;;;16.50;99.90;;;;;;5050995;28;20078;-79
2021/09/11 02:38:46;;;;;;;13.32;9.52;;;16.50;99.90;;;;;;5063786;28;20417;-79
2021/09/11 02:41:12;;;;;;;13.15;9.98;;;16.50;99.90;;;;;;5043383;28;20033;-79
2021/09/11 02:43:37;;;;;;;13.95;10.10;;;16.50;99.90;;;;;;5052187;28;20021;-79
2021/09/11 02:46:03;;;;;;;14.93;10.68;;;16.50;99.90;;;;;;5042455;28;20056;-79
2021/09/11 02:48:29;;;;;;;12.60;10.05;;;16.50;99.90;;;;;;5032304;28;20038;-80
2021/09/11 02:50:55;;;;;;;15.30;10.70;;;16.50;99.90;;;;;;5020828;28;20482;-79
2021/09/11 02:53:20;;;;;;;13.90;10.05;;;16.50;99.90;;;;;;5051844;28;20029;-79
2021/09/11 02:55:46;;;;;;;14.80;10.43;;;16.50;99.90;;;;;;5052358;28;20137;-79
2021/09/11 02:58:12;;;;;;;14.15;9.82;;;16.50;99.90;;;;;;5032631;28;20090;-79
2021/09/11 03:00:38;;;;;;;15.93;10.48;;;16.50;99.90;;;;;;5050870;28;20083;-79
2021/09/11 03:03:04;;;;;;;14.30;10.57;;;16.50;99.90;;;;;;5023064;28;20490;-79
2021/09/11 03:05:29;;;;;;;13.27;10.00;;;16.50;99.90;;;;;;5017339;28;20444;-79
2021/09/11 03:07:55;;;;;;;15.25;11.30;;;16.50;99.90;;;;;;5041909;28;20037;-79
2021/09/11 03:10:21;;;;;;;14.30;10.93;;;16.50;99.90;;;;;;5047224;28;20035;-79
2021/09/11 03:12:47;;;;;;;13.88;10.20;;;16.50;99.90;;;;;;5049008;28;20041;-79
2021/09/11 03:15:12;;;;;;;15.98;10.20;;;16.50;99.90;;;;;;5035623;28;20067;-79
2021/09/11 03:17:38;;;;;;;14.45;10.77;;;16.50;99.90;;;;;;5016239;28;20043;-79
2021/09/11 03:20:05;;;;;;;14.57;10.45;;;16.50;99.90;;;;;;5030351;28;20040;-79
2021/09/11 03:22:31;;;;;;;17.88;11.60;;;16.50;99.90;;;;;;5050980;28;20510;-79
2021/09/11 03:24:56;;;;;;;16.20;10.48;;;16.50;99.90;;;;;;5051487;28;20025;-79
2021/09/11 03:27:22;;;;;;;16.20;10.93;;;16.50;99.90;;;;;;5050511;28;20063;-79
2021/09/11 03:29:48;;;;;;;14.48;10.48;;;16.50;99.90;;;;;;5046028;28;20029;-80
2021/09/11 03:32:13;;;;;;;16.35;11.48;;;16.50;99.90;;;;;;5032346;28;20032;-79
2021/09/11 03:34:39;;;;;;;15.80;11.45;;;16.50;99.90;;;;;;5042436;28;20494;-79
2021/09/11 03:37:05;;;;;;;17.08;11.15;;;16.50;99.90;;;;;;4990194;28;20091;-79
2021/09/11 03:39:30;;;;;;;15.18;10.57;;;16.50;99.90;;;;;;5018624;28;20044;-80
2021/09/11 03:41:56;;;;;;;16.35;11.25;;;16.50;99.90;;;;;;5040397;28;20491;-80
2021/09/11 03:44:22;;;;;;;20.02;11.85;;;16.50;99.90;;;;;;5019788;28;20040;-81
2021/09/11 03:46:47;;;;;;;14.02;10.50;;;16.50;99.90;;;;;;5021946;28;20029;-79
2021/09/11 03:49:13;;;;;;;13.85;9.88;;;16.50;99.90;;;;;;5039330;28;20028;-81
2021/09/11 03:51:39;;;;;;;16.85;11.77;;;16.50;99.90;;;;;;5038107;28;20424;-81
2021/09/11 03:54:05;;;;;;;14.50;10.80;;;16.50;99.90;;;;;;5054206;28;20068;-80
2021/09/11 03:56:31;;;;;;;14.77;11.05;;;16.50;99.90;;;;;;5034575;28;20033;-79
2021/09/11 03:58:56;;;;;;;15.45;11.52;;;16.50;99.90;;;;;;5034716;28;20041;-80
2021/09/11 04:01:22;;;;;;;17.00;11.05;;;16.50;99.90;;;;;;5033544;28;20035;-79
2021/09/11 04:03:48;;;;;;;17.15;11.75;;;16.60;99.90;;;;;;5042733;22;20577;-78
2021/09/11 04:06:14;;;;;;;14.63;10.93;;;16.50;99.90;;;;;;5039776;28;20037;-78
2021/09/11 04:08:40;;;;;;;15.63;11.02;;;16.60;99.90;;;;;;5052386;28;20049;-77
2021/09/11 04:11:06;;;;;;;19.17;11.70;;;16.60;99.90;;;;;;5044896;28;20118;-78
2021/09/11 04:13:34;;;;;;;14.15;10.73;;;16.50;99.90;;;;;;5027360;28;20024;-78
2021/09/11 04:15:59;;;;;;;14.20;10.45;;;16.60;99.90;;;;;;5047782;28;20076;-77
2021/09/11 04:18:25;;;;;;;16.52;11.45;;;16.60;99.90;;;;;;5051470;28;20454;-78
2021/09/11 04:20:52;;;;;;;16.67;10.63;;;16.60;99.90;;;;;;5032734;28;20449;-78
2021/09/11 04:23:18;;;;;;;16.30;11.13;;;16.60;99.90;;;;;;5049819;28;20021;-78
2021/09/11 04:25:44;;;;;;;16.70;11.93;;;16.60;99.90;;;;;;5032409;28;20029;-78
2021/09/11 04:28:10;;;;;;;16.38;12.07;;;16.60;99.90;;;;;;5039267;28;20116;-77
2021/09/11 04:30:36;;;;;;;17.88;11.80;;;16.60;99.90;;;;;;5050311;28;20056;-78
2021/09/11 04:33:02;;;;;;;18.88;12.80;;;16.60;99.90;;;;;;5044901;28;20043;-78
2021/09/11 04:35:28;;;;;;;17.55;11.27;;;16.60;99.90;;;;;;5015982;28;20037;-78
2021/09/11 04:37:53;;;;;;;17.83;11.75;;;16.60;99.90;;;;;;5050541;28;20178;-77
2021/09/11 04:40:19;;;;;;;16.35;11.98;;;16.60;99.90;;;;;;5042035;28;20029;-78
2021/09/11 04:42:45;;;;;;;18.58;12.02;;;16.60;99.90;;;;;;5029785;28;20033;-78
2021/09/11 04:45:11;;;;;;;16.40;11.73;;;16.60;99.90;;;;;;5045503;28;20029;-77
2021/09/11 04:47:36;;;;;;;19.05;13.07;;;16.60;99.90;;;;;;5023849;28;20057;-78
2021/09/11 04:50:02;;;;;;;19.38;12.98;;;16.60;99.90;;;;;;5034966;28;20041;-78
2021/09/11 04:52:28;;;;;;;16.48;11.98;;;16.60;99.90;;;;;;5028751;28;20396;-78
2021/09/11 04:54:54;;;;;;;17.55;12.25;;;16.60;99.90;;;;;;5011871;28;20037;-78
2021/09/11 04:57:19;;;;;;;18.45;11.65;;;16.50;99.90;;;;;;5030727;28;20499;-78
2021/09/11 04:59:45;;;;;;;19.13;12.60;;;16.60;99.90;;;;;;5050300;28;20040;-78
2021/09/11 05:02:11;;;;;;;17.40;11.88;;;16.50;99.90;;;;;;4998284;28;20036;-78
2021/09/11 05:04:36;;;;;;;15.45;11.35;;;16.50;99.90;;;;;;4999925;28;20474;-78
2021/09/11 05:07:02;;;;;;;16.33;10.77;;;16.50;99.90;;;;;;5032468;28;20501;-77
2021/09/11 05:09:28;;;;;;;15.65;11.07;;;16.50;99.90;;;;;;5050523;28;20025;-77
2021/09/11 05:11:54;;;;;;;15.82;11.40;;;16.50;99.90;;;;;;5037866;28;20751;-77
2021/09/11 05:14:19;;;;;;;19.30;12.55;;;16.50;99.90;;;;;;5031595;28;20533;-78
2021/09/11 05:16:45;;;;;;;16.80;12.15;;;16.50;99.90;;;;;;5018098;28;20041;-78
2021/09/11 05:19:11;;;;;;;17.17;12.57;;;16.50;99.90;;;;;;5050106;28;20029;-78
2021/09/11 05:21:37;;;;;;;16.80;11.45;;;16.50;99.90;;;;;;5033349;28;20510;-78
2021/09/11 05:24:03;;;;;;;17.10;12.05;;;16.50;99.90;;;;;;5034005;28;20503;-78
2021/09/11 05:26:29;;;;;;;18.65;12.70;;;16.50;99.90;;;;;;5022524;28;20127;-78
2021/09/11 05:28:54;;;;;;;19.98;12.68;;;16.50;99.90;;;;;;5042352;28;20626;-78
2021/09/11 05:31:20;;;;;;;18.38;13.05;;;16.50;99.90;;;;;;5053662;28;20037;-77
2021/09/11 05:33:46;;;;;;;21.42;12.50;;;16.50;99.90;;;;;;5016286;28;20029;-78
2021/09/11 05:36:12;;;;;;;17.88;12.05;;;16.50;99.90;;;;;;5033780;28;20083;-78
2021/09/11 05:38:37;;;;;;;19.45;13.40;;;16.50;99.90;;;;;;5053108;28;20029;-78
2021/09/11 05:41:04;;;;;;;17.42;12.93;;;16.60;99.90;;;;;;5027276;28;20044;-78
2021/09/11 05:43:29;;;;;;;19.20;12.35;;;16.60;99.90;;;;;;5036223;28;20475;-78
2021/09/11 05:45:55;;;;;;;20.73;14.02;;;16.60;99.90;;;;;;5040956;28;20034;-78
2021/09/11 05:48:21;;;;;;;19.15;12.68;;;16.60;99.90;;;;;;5011523;28;20080;-78
2021/09/11 05:50:47;;;;;;;17.52;12.60;;;16.60;99.90;;;;;;5052542;28;20468;-78
2021/09/11 05:53:13;;;;;;;19.83;13.00;;;16.60;99.90;;;;;;5046091;28;20557;-77
2021/09/11 05:55:39;;;;;;;19.27;12.93;;;16.70;99.90;;;;;;5054627;28;20037;-78
2021/09/11 05:58:04;;;;;;;18.83;12.50;;;16.70;99.90;;;;;;5057354;28;20029;-80
2021/09/11 06:00:30;;;;;;;16.85;11.63;;;16.70;99.90;;;;;;5024590;28;20040;-79
2021/09/11 06:02:55;;;;;;;18.70;12.20;;;16.70;99.90;;;;;;5024476;28;20049;-79
2021/09/11 06:05:21;;;;;;;22.33;13.68;;;16.80;99.90;;;;;;5027689;28;20029;-79
2021/09/11 06:07:47;;;;;;;21.60;13.02;;;16.80;99.90;;;;;;5053824;28;20029;-79
2021/09/11 06:10:13;;;;;;;18.13;12.57;;;16.80;99.90;;;;;;5031225;28;20482;-79
2021/09/11 06:12:39;;;;;;;20.75;12.70;;;16.90;99.90;;;;;;5033115;28;20494;-79
2021/09/11 06:15:06;;;;;;;18.42;12.68;;;16.90;99.90;;;;;;5049739;28;20031;-79
2021/09/11 06:17:32;;;;;;;19.33;14.40;;;16.90;99.90;;;;;;5019658;28;20033;-79
2021/09/11 06:19:58;;;;;;;19.17;14.13;;;17.00;99.90;;;;;;5036681;28;20033;-79
2021/09/11 06:22:24;;;;;;;17.08;12.45;;;17.00;99.90;;;;;;5025730;28;20025;-79
2021/09/11 06:24:49;;;;;;;21.45;13.68;;;17.00;99.90;;;;;;5037739;28;20379;-78
2021/09/11 06:27:18;;;;;;;17.30;12.30;;;17.10;99.90;;;;;;5068414;28;20028;-79
2021/09/11 06:29:44;;;;;;;19.33;13.52;;;17.10;99.90;;;;;;5045229;28;20498;-79
2021/09/11 06:32:09;;;;;;;19.90;13.13;;;17.20;99.90;;;;;;5021611;28;20048;-79
2021/09/11 06:34:35;;;;;;;20.90;14.48;;;17.20;99.90;;;;;;5012177;28;20120;-79
2021/09/11 06:37:01;;;;;;;18.90;13.70;;;17.20;99.90;;;;;;5039398;28;20069;-79
2021/09/11 06:39:26;;;;;;;17.45;12.02;;;17.30;99.90;;;;;;5058672;28;20503;-79
2021/09/11 06:41:52;;;;;;;17.85;12.15;;;17.40;99.90;;;;;;5037187;28;20029;-79
2021/09/11 06:44:18;;;;;;;19.92;13.07;;;17.40;99.90;;;;;;5051586;28;20044;-79
2021/09/11 06:46:44;;;;;;;18.55;13.60;;;17.50;99.90;;;;;;5019311;28;20631;-80
2021/09/11 06:49:09;;;;;;;16.90;11.75;;;17.50;99.90;;;;;;5055413;28;20040;-79
2021/09/11 06:51:35;;;;;;;17.00;11.55;;;17.60;99.90;;;;;;5029792;28;20041;-79
2021/09/11 06:54:01;;;;;;;14.57;10.25;;;17.60;99.90;;;;;;5020821;28;20037;-80
2021/09/11 06:56:27;;;;;;;15.88;11.63;;;17.60;99.90;;;;;;5017465;28;20033;-80
2021/09/11 06:58:52;;;;;;;18.98;12.00;;;17.60;99.90;;;;;;5027209;28;20045;-80
2021/09/11 07:01:20;;;;;;;17.27;12.15;;;17.60;99.90;;;;;;5013696;28;20083;-79
2021/09/11 07:03:45;;;;;;;16.67;12.00;;;17.60;99.90;;;;;;5049026;28;20075;-80
2021/09/11 07:06:11;;;;;;;18.33;11.52;;;17.70;99.90;;;;;;5023379;28;20041;-79
2021/09/11 07:08:37;;;;;;;15.88;12.35;;;17.70;99.90;;;;;;5021155;28;20395;-79
2021/09/11 07:11:02;;;;;;;14.68;11.07;;;17.70;99.90;;;;;;5017646;28;20021;-80
2021/09/11 07:13:28;;;;;;;17.08;11.88;;;17.70;99.90;;;;;;5039968;28;20025;-79
2021/09/11 07:15:54;;;;;;;17.45;12.65;;;17.70;99.90;;;;;;5035534;28;20024;-80
2021/09/11 07:18:20;;;;;;;18.02;12.45;;;17.70;99.90;;;;;;5048593;28;20081;-80
2021/09/11 07:20:45;;;;;;;13.45;10.52;;;17.70;99.90;;;;;;5031290;28;20040;-80
2021/09/11 07:23:11;;;;;;;16.02;11.45;;;17.80;99.90;;;;;;5038587;28;20098;-80
2021/09/11 07:25:37;;;;;;;14.93;11.20;;;17.80;99.90;;;;;;5039652;28;20059;-81
2021/09/11 07:28:03;;;;;;;13.95;10.82;;;17.90;99.90;;;;;;5017502;28;20064;-81
2021/09/11 07:30:28;;;;;;;14.63;11.68;;;17.80;99.90;;;;;;5011455;28;20128;-80
2021/09/11 07:32:54;;;;;;;13.73;10.35;;;17.90;99.90;;;;;;5024156;28;20037;-81
2021/09/11 07:35:20;;;;;;;13.93;11.38;;;17.90;99.90;;;;;;5034306;28;20112;-81
2021/09/11 07:37:45;;;;;;;14.73;10.75;;;18.00;99.90;;;;;;5020910;28;20032;-80
2021/09/11 07:40:11;;;;;;;16.58;11.07;;;18.00;99.90;;;;;;5016482;28;20075;-81
2021/09/11 07:42:37;;;;;;;14.85;11.10;;;18.10;99.90;;;;;;5046437;28;20032;-81
2021/09/11 07:45:05;;;;;;;17.77;12.23;;;18.20;99.90;;;;;;5052338;28;20092;-81
2021/09/11 07:47:31;;;;;;;14.85;11.13;;;18.20;99.90;;;;;;5039626;28;20033;-81
2021/09/11 07:49:56;;;;;;;16.65;12.00;;;18.30;99.90;;;;;;5054367;28;20394;-81
2021/09/11 07:52:22;;;;;;;14.82;11.48;;;18.30;99.90;;;;;;5063749;28;20064;-80
2021/09/11 07:54:48;;;;;;;15.35;10.63;;;18.40;99.90;;;;;;5015395;28;20115;-81
2021/09/11 07:57:13;;;;;;;13.77;10.75;;;18.50;99.90;;;;;;5042476;28;20033;-80
2021/09/11 07:59:39;;;;;;;15.07;10.65;;;18.50;99.90;;;;;;5030166;28;20045;-81
2021/09/11 08:02:05;;;;;;;15.23;11.68;;;18.50;99.90;;;;;;5005015;28;20072;-81
2021/09/11 08:04:31;;;;;;;19.92;11.60;;;18.50;99.90;;;;;;5022264;28;20639;-81
2021/09/11 08:06:56;;;;;;;15.40;10.15;;;18.50;99.90;;;;;;5023055;28;20037;-80
2021/09/11 08:09:22;;;;;;;14.50;9.95;;;18.50;99.90;;;;;;5022295;28;20023;-81
2021/09/11 08:11:48;;;;;;;14.70;10.00;;;18.50;99.90;;;;;;5054009;28;20025;-81
2021/09/11 08:14:14;;;;;;;13.63;10.02;;;18.50;99.90;;;;;;5038506;28;20108;-81
2021/09/11 08:16:40;;;;;;;13.60;9.57;;;18.60;99.90;;;;;;5044767;28;20457;-81
2021/09/11 08:19:06;;;;;;;13.25;9.40;;;18.60;99.90;;;;;;5040281;28;20119;-81
2021/09/11 08:21:31;;;;;;;12.68;9.63;;;18.60;99.90;;;;;;5055464;28;20218;-81
2021/09/11 08:23:57;;;;;;;14.70;10.45;;;18.70;99.90;;;;;;5042009;28;20053;-82
2021/09/11 08:26:23;;;;;;;14.95;10.63;;;18.80;99.90;;;;;;5050175;28;20064;-81
2021/09/11 08:28:51;;;;;;;12.07;9.25;;;18.90;99.90;;;;;;5032232;28;20041;-81
2021/09/11 08:31:17;;;;;;;13.18;10.02;;;19.00;99.90;;;;;;5044932;28;20040;-81
2021/09/11 08:33:43;;;;;;;13.00;9.10;;;19.10;99.90;;;;;;5047088;28;20021;-81
2021/09/11 08:36:09;;;;;;;11.10;8.80;;;19.20;99.90;;;;;;5049574;28;20032;-82
2021/09/11 08:38:35;;;;;;;11.52;9.05;;;19.20;99.90;;;;;;5037049;28;20060;-82
2021/09/11 08:41:06;;;;;;;11.48;9.10;;;19.30;99.90;;;;;;5005165;28;20440;-81
2021/09/11 08:43:35;;;;;;;9.38;7.82;;;19.30;99.90;;;;;;5016918;28;20428;-81
2021/09/11 08:46:02;;;;;;;10.43;8.32;;;19.40;99.90;;;;;;5000594;28;20049;-81
2021/09/11 08:48:28;;;;;;;10.18;8.20;;;19.40;99.90;;;;;;5030766;28;20040;-80
2021/09/11 08:50:54;;;;;;;9.07;7.57;;;19.40;99.90;;;;;;5044021;28;20029;-81
2021/09/11 08:53:20;;;;;;;8.80;7.18;;;19.40;99.90;;;;;;5010020;28;20055;-80
2021/09/11 08:55:46;;;;;;;8.63;7.28;;;19.50;99.90;;;;;;5013913;28;20033;-80
2021/09/11 08:58:12;;;;;;;9.25;7.35;;;19.50;99.90;;;;;;5043364;28;20071;-81
2021/09/11 09:00:45;;;;;;;9.65;7.00;;;19.60;99.90;;;;;;5015613;28;20037;-82
2021/09/11 09:03:33;;;;;;;8.23;7.10;;;19.60;99.90;;;;;;5056818;28;20033;-82
2021/09/11 09:06:23;;;;;;;8.80;7.50;;;19.70;99.90;;;;;;5019443;28;20029;-82
2021/09/11 09:09:10;;;;;;;12.55;7.50;;;19.70;99.90;;;;;;5000598;28;20523;-82
2021/09/11 09:11:38;;;;;;;10.05;7.30;;;19.70;99.90;;;;;;5024043;28;20037;-82
2021/09/11 09:14:06;;;;;;;9.65;7.38;;;19.70;99.90;;;;;;5005295;28;20028;-82
2021/09/11 09:16:42;;;;;;;8.93;7.15;;;19.60;99.90;;;;;;5037308;28;20522;-82
2021/09/11 09:19:20;;;;;;;10.60;8.02;;;19.60;99.90;;;;;;5033594;28;20037;-82
2021/09/11 09:21:48;;;;;;;9.50;7.15;;;19.60;99.90;;;;;;5014270;28;20037;-82
2021/09/11 09:24:30;;;;;;;7.95;6.75;;;19.60;99.90;;;;;;5030648;28;20025;-82
2021/09/11 09:26:58;;;;;;;9.55;7.63;;;19.70;99.90;;;;;;5051191;28;20052;-83
2021/09/11 09:29:24;;;;;;;8.80;7.63;;;19.70;99.90;;;;;;5039116;28;20025;-82
2021/09/11 09:31:56;;;;;;;10.00;7.70;;;19.70;99.90;;;;;;5051421;28;20032;-83
2021/09/11 09:34:34;;;;;;;7.63;6.82;;;19.70;99.90;;;;;;5032478;28;20052;-82
2021/09/11 09:37:04;;;;;;;8.70;7.47;;;19.70;99.90;;;;;;5051788;28;20037;-82
2021/09/11 09:39:30;;;;;;;8.18;7.35;;;19.80;99.90;;;;;;5032215;28;20033;-82
2021/09/11 09:42:03;;;;;;;8.85;7.32;;;19.80;99.90;;;;;;5012375;28;20034;-82
2021/09/11 09:44:38;;;;;;;8.98;7.68;;;19.80;99.90;;;;;;5035026;28;20029;-82
2021/09/11 09:47:04;;;;;;;9.73;7.68;;;19.70;99.90;;;;;;5030513;28;20464;-82
2021/09/11 09:49:31;;;;;;;8.57;6.90;;;19.70;99.90;;;;;;5047339;28;20071;-82
2021/09/11 09:51:58;;;;;;;9.70;8.40;;;19.60;99.90;;;;;;5041072;28;20041;-82
2021/09/11 09:54:25;;;;;;;9.25;7.50;;;19.60;99.90;;;;;;5051153;28;20043;-83
2021/09/11 09:56:51;;;;;;;9.20;7.25;;;19.60;99.90;;;;;;5016411;28;20426;-82
2021/09/11 09:59:17;;;;;;;8.60;7.63;;;19.60;99.90;;;;;;5024970;28;20120;-82
2021/09/11 10:01:44;;;;;;;8.60;7.25;;;19.70;99.90;;;;;;5061451;28;20105;-83
2021/09/11 10:04:28;;;;;;;9.77;7.45;;;19.70;99.90;;;;;;5031848;23;20112;-87
2021/09/11 10:07:03;;;;;;;10.38;7.68;;;19.80;99.90;;;;;;5014258;28;20067;-87
2021/09/11 10:09:30;;;;;;;9.05;7.45;;;19.80;99.90;;;;;;4998715;28;20092;-87
2021/09/11 10:11:56;;;;;;;10.50;7.22;;;19.80;99.90;;;;;;4976338;28;20030;-85
2021/09/11 10:14:32;;;;;;;10.30;8.02;;;19.80;99.90;;;;;;5007089;28;20125;-85
2021/09/11 10:17:05;;;;;;;8.65;7.40;;;19.90;99.90;;;;;;4981411;28;20042;-86
2021/09/11 10:19:36;;;;;;;8.13;7.00;;;19.90;99.90;;;;;;4991943;28;20026;-86
2021/09/11 10:22:24;;;;;;;9.70;7.85;;;19.90;99.90;;;;;;5000883;28;20033;-86
2021/09/11 10:25:02;;;;;;;10.52;7.35;;;19.90;99.90;;;;;;5019744;28;20029;-86
2021/09/11 10:27:39;;;;;;;10.80;6.80;;;19.90;99.90;;;;;;5007214;28;20034;-87
2021/09/11 10:30:13;;;;;;;10.30;8.27;;;19.80;99.90;;;;;;4982225;28;20503;-86
2021/09/11 10:32:59;;;;;;;9.80;7.60;;;19.80;99.90;;;;;;5001309;28;20075;-87
2021/09/11 10:35:26;;;;;;;;;;;19.80;99.90;;;;;;4995147;28;20045;-86
2021/09/11 10:37:54;;;;;;;8.02;6.57;;;19.80;99.90;;;;;;4966061;28;19913;-86
2021/09/11 10:40:26;;;;;;;8.32;6.53;;;19.70;99.90;;;;;;4985546;28;20033;-86
2021/09/11 10:43:04;;;;;;;9.10;6.90;;;19.80;99.90;;;;;;4991358;28;20036;-86
2021/09/11 10:46:04;;;;;;;7.28;6.30;;;19.90;99.90;;;;;;4988856;28;20028;-86
2021/09/11 10:48:51;;;;;;;7.88;6.47;;;19.90;99.90;;;;;;4986291;28;20033;-87
2021/09/11 10:51:29;;;;;;;7.35;6.50;;;20.10;99.90;;;;;;4994235;28;20120;-86
2021/09/11 10:54:17;;;;;;;6.55;5.45;;;20.10;99.90;;;;;;4985879;28;20057;-86
2021/09/11 10:56:51;;;;;;;7.43;6.57;;;20.30;99.90;;;;;;4998856;28;20029;-86
2021/09/11 10:59:19;;;;;;;7.93;6.32;;;20.40;99.90;;;;;;4999825;28;20101;-86
2021/09/11 11:01:59;;;;;;;8.10;6.82;;;20.50;99.90;;;;;;4995266;28;20478;-86
2021/09/11 11:04:46;;;;;;;7.57;6.35;;;20.50;99.90;;;;;;5009866;28;20451;-86
2021/09/11 11:07:13;;;;;;;6.53;5.82;;;20.50;99.90;;;;;;4986732;28;20121;-86
2021/09/11 11:09:59;;;;;;;6.93;6.22;;;20.60;99.90;;;;;;4990735;28;20018;-85
2021/09/11 11:12:31;;;;;;;7.80;6.03;;;20.70;99.90;;;;;;4986968;28;20034;-85
2021/09/11 11:15:05;;;;;;;7.55;5.70;;;20.90;99.90;;;;;;5004119;28;20495;-85
2021/09/11 11:17:36;;;;;;;;;;;21.00;99.90;;;;;;4948361;28;20069;-86
2021/09/11 11:20:04;;;;;;;6.22;5.35;;;21.10;99.90;;;;;;4988235;28;19999;-85
2021/09/11 11:22:38;;;;;;;6.28;5.65;;;21.20;99.90;;;;;;4984541;28;20018;-85
2021/09/11 11:25:09;;;;;;;6.45;4.93;;;21.20;99.90;;;;;;4969829;28;20099;-86
2021/09/11 11:27:35;;;;;;;5.57;5.05;;;21.10;99.90;;;;;;4976472;28;20034;-86
2021/09/11 11:30:03;;;;;;;5.47;4.80;;;21.10;99.90;;;;;;4972694;28;20502;-85
2021/09/11 11:32:38;;;;;;;6.82;5.65;;;21.10;99.90;;;;;;5005600;28;20021;-86
2021/09/11 11:35:06;;;;;;;7.53;4.88;;;21.00;99.90;;;;;;4979076;28;20506;-86
2021/09/11 11:37:37;;;;;;;4.97;4.47;;;21.00;99.90;;;;;;4990541;28;20026;-86
2021/09/11 11:40:08;;;;;;;5.25;4.72;;;21.00;99.90;;;;;;4992857;28;20036;-86
2021/09/11 11:42:35;;;;;;;5.55;5.05;;;21.00;99.90;;;;;;4989366;28;20107;-86
2021/09/11 11:45:07;;;;;;;6.20;4.97;;;21.00;99.90;;;;;;5007272;28;20559;-86
2021/09/11 11:47:58;;;;;;;5.57;4.97;;;20.80;99.90;;;;;;4972119;28;20038;-86
2021/09/11 11:50:32;;;;;;;5.65;5.05;;;20.70;99.90;;;;;;4991275;28;20034;-86
2021/09/11 11:52:59;;;;;;;5.38;4.88;;;20.60;99.90;;;;;;4989138;28;20033;-86
2021/09/11 11:55:26;;;;;;;5.20;4.70;;;20.40;99.90;;;;;;4992662;28;20021;-86
2021/09/11 11:58:05;;;;;;;5.63;5.00;;;20.30;99.90;;;;;;4971794;28;20049;-86
2021/09/11 12:00:41;;;;;;;7.90;5.88;;;20.30;99.90;;;;;;4996211;23;20532;-80
2021/09/11 12:03:33;;;;;;;6.70;5.10;;;20.30;99.90;;;;;;4973332;28;20034;-79
2021/09/11 12:06:04;;;;;;;7.13;4.68;;;20.40;99.90;;;;;;4949311;28;20540;-79
2021/09/11 12:08:36;;;;;;;5.47;4.88;;;20.30;99.90;;;;;;4978865;28;20027;-80
2021/09/11 12:11:03;;;;;;;4.50;4.03;;;20.30;99.90;;;;;;4950875;28;20495;-80
2021/09/11 12:13:29;;;;;;;4.68;4.20;;;20.40;99.90;;;;;;4959025;28;20031;-80
2021/09/11 12:15:56;;;;;;;5.70;4.07;;;20.40;99.90;;;;;;4975052;28;20043;-80
2021/09/11 12:18:22;;;;;;;3.88;3.58;;;20.30;99.90;;;;;;4961371;28;20045;-80
2021/09/11 12:20:50;;;;;;;5.22;3.95;;;20.20;99.90;;;;;;4963188;28;20042;-80
2021/09/11 12:23:18;;;;;;;4.30;3.58;;;20.20;99.90;;;;;;4980871;28;20550;-80
2021/09/11 12:25:51;;;;;;;4.43;3.97;;;20.20;99.90;;;;;;4968719;28;20019;-79
2021/09/11 12:28:36;;;;;;;4.15;3.75;;;20.20;99.90;;;;;;4937384;28;20160;-79
2021/09/11 12:31:04;;;;;;;4.65;3.55;;;20.20;99.90;;;;;;4981018;28;20788;-79
2021/09/11 12:33:40;;;;;;;4.25;3.70;;;20.30;99.90;;;;;;4987687;28;20018;-79
2021/09/11 12:36:20;;;;;;;4.93;4.22;;;20.40;99.90;;;;;;4958578;28;20501;-80
2021/09/11 12:38:47;;;;;;;4.80;4.07;;;20.40;99.90;;;;;;4981410;28;20029;-80